createdAt,value
2018-02-17T00:00:38.507Z,-1.80
2018-02-17T00:03:06.689Z,-1.90
2018-02-17T00:05:34.704Z,-1.80
2018-02-17T00:08:02.842Z,-1.90
2018-02-17T00:10:30.688Z,-2.10
2018-02-17T00:12:58.778Z,-2.00
2018-02-17T00:15:27.341Z,-2.00
2018-02-17T00:17:55.265Z,-2.00
2018-02-17T00:20:23.841Z,-2.00
2018-02-17T00:22:51.698Z,-1.90
2018-02-17T00:25:19.717Z,-1.90
2018-02-17T00:27:47.745Z,-1.90
2018-02-17T00:30:16.767Z,-1.90
2018-02-17T00:32:44.747Z,-1.80
2018-02-17T00:35:12.680Z,-1.90
2018-02-17T00:37:40.594Z,-1.80
2018-02-17T00:40:09.017Z,-1.80
2018-02-17T00:42:36.986Z,-1.80
2018-02-17T00:45:04.854Z,-1.90
2018-02-17T00:47:33.096Z,-1.90
2018-02-17T00:50:01.046Z,-2.00
2018-02-17T00:52:28.967Z,-2.10
2018-02-17T00:54:57.692Z,-2.20
2018-02-17T00:57:28.067Z,-2.20
2018-02-17T00:59:56.878Z,-2.60
2018-02-17T01:02:24.802Z,-2.60
2018-02-17T01:04:55.100Z,-2.80
2018-02-17T01:07:23.894Z,-2.90
2018-02-17T01:09:51.742Z,-2.90
2018-02-17T01:12:19.725Z,-2.80
2018-02-17T01:14:48.361Z,-2.90
2018-02-17T01:17:16.696Z,-2.90
2018-02-17T01:19:44.739Z,-2.80
2018-02-17T01:22:13.406Z,-2.70
2018-02-17T01:24:41.372Z,-2.80
2018-02-17T01:27:09.552Z,-2.70
2018-02-17T01:29:37.995Z,-2.70
2018-02-17T01:32:06.149Z,-2.60
2018-02-17T01:34:34.575Z,-2.60
2018-02-17T01:37:02.529Z,-2.50
2018-02-17T01:39:30.770Z,-2.50
2018-02-17T01:41:58.826Z,-2.40
2018-02-17T01:44:27.656Z,-2.40
2018-02-17T01:46:55.626Z,-2.40
2018-02-17T01:49:24.439Z,-2.30
2018-02-17T01:51:52.317Z,-2.40
2018-02-17T01:54:20.465Z,-2.40
2018-02-17T01:56:48.818Z,-2.30
2018-02-17T01:59:16.907Z,-2.30
2018-02-17T02:01:44.863Z,-2.30
2018-02-17T02:04:13.640Z,-2.40
2018-02-17T02:06:42.375Z,-2.40
2018-02-17T02:09:10.601Z,-2.40
2018-02-17T02:11:38.860Z,-2.50
2018-02-17T02:14:06.818Z,-2.40
2018-02-17T02:16:34.901Z,-2.40
2018-02-17T02:19:02.931Z,-2.40
2018-02-17T02:21:30.890Z,-2.40
2018-02-17T02:23:58.913Z,-2.40
2018-02-17T02:26:27.027Z,-2.50
2018-02-17T02:28:55.207Z,-2.60
2018-02-17T02:31:23.561Z,-2.50
2018-02-17T02:33:51.659Z,-2.50
2018-02-17T02:36:19.877Z,-2.40
2018-02-17T02:38:47.869Z,-2.50
2018-02-17T02:41:15.736Z,-2.50
2018-02-17T02:43:43.620Z,-2.60
2018-02-17T02:46:11.884Z,-2.70
2018-02-17T02:48:40.775Z,-2.50
2018-02-17T02:51:12.055Z,-2.60
2018-02-17T02:53:40.740Z,-2.50
2018-02-17T02:56:08.679Z,-2.50
2018-02-17T02:58:37.488Z,-2.40
2018-02-17T03:01:07.332Z,-2.60
2018-02-17T03:03:35.267Z,-2.60
2018-02-17T03:06:04.011Z,-2.60
2018-02-17T03:08:31.966Z,-2.70
2018-02-17T03:10:59.941Z,-2.60
2018-02-17T03:13:27.965Z,-2.80
2018-02-17T03:15:57.162Z,-2.80
2018-02-17T03:18:25.905Z,-2.70
2018-02-17T03:20:54.184Z,-2.80
2018-02-17T03:23:22.370Z,-2.70
2018-02-17T03:25:51.152Z,-2.70
2018-02-17T03:28:19.314Z,-2.70
2018-02-17T03:30:47.378Z,-2.80
2018-02-17T03:33:16.579Z,-2.60
2018-02-17T03:35:44.939Z,-2.60
2018-02-17T03:38:13.723Z,-2.60
2018-02-17T03:40:41.850Z,-2.60
2018-02-17T03:43:18.615Z,-2.60
2018-02-17T03:45:46.739Z,-2.60
2018-02-17T03:48:23.328Z,-2.60
2018-02-17T03:50:53.075Z,-2.50
2018-02-17T03:53:23.674Z,-2.50
2018-02-17T03:55:51.676Z,-2.50
2018-02-17T03:58:20.600Z,-2.50
2018-02-17T04:00:48.540Z,-2.50
2018-02-17T04:03:16.730Z,-2.70
2018-02-17T04:05:44.812Z,-2.80
2018-02-17T04:08:13.812Z,-2.60
2018-02-17T04:10:42.680Z,-2.60
2018-02-17T04:13:11.031Z,-2.60
2018-02-17T04:15:40.053Z,-2.50
2018-02-17T04:18:08.146Z,-2.50
2018-02-17T04:20:36.438Z,-2.40
2018-02-17T04:23:04.370Z,-2.40
2018-02-17T04:25:32.401Z,-2.40
2018-02-17T04:28:01.265Z,-2.50
2018-02-17T04:30:32.311Z,-2.60
2018-02-17T04:33:00.475Z,-2.50
2018-02-17T04:35:29.326Z,-2.50
2018-02-17T04:37:59.610Z,-2.50
2018-02-17T04:40:28.124Z,-2.50
2018-02-17T04:42:56.128Z,-2.50
2018-02-17T04:45:24.210Z,-2.50
2018-02-17T04:47:52.954Z,-2.50
2018-02-17T04:50:21.180Z,-2.50
2018-02-17T04:52:49.236Z,-2.40
2018-02-17T04:55:18.217Z,-2.50
2018-02-17T04:57:46.305Z,-2.50
2018-02-17T05:00:14.410Z,-2.60
2018-02-17T05:02:42.315Z,-2.50
2018-02-17T05:05:10.676Z,-2.60
2018-02-17T05:07:44.016Z,-2.50
2018-02-17T05:10:12.449Z,-2.50
2018-02-17T05:12:41.208Z,-2.40
2018-02-17T05:15:09.282Z,-2.40
2018-02-17T05:17:45.877Z,-2.40
2018-02-17T05:20:13.899Z,-2.40
2018-02-17T05:22:42.706Z,-2.40
2018-02-17T05:25:10.980Z,-2.40
2018-02-17T05:27:39.031Z,-2.40
2018-02-17T05:30:08.369Z,-2.50
2018-02-17T05:32:37.154Z,-2.40
2018-02-17T05:35:05.979Z,-2.50
2018-02-17T05:37:34.606Z,-2.50
2018-02-17T05:40:02.611Z,-2.50
2018-02-17T05:42:31.648Z,-2.40
2018-02-17T05:44:59.738Z,-2.40
2018-02-17T05:47:27.688Z,-2.40
2018-02-17T05:49:55.987Z,-2.40
2018-02-17T05:52:23.959Z,-2.40
2018-02-17T05:54:52.150Z,-2.40
2018-02-17T05:57:29.671Z,-2.40
2018-02-17T05:59:58.356Z,-2.80
2018-02-17T06:02:26.886Z,-2.80
2018-02-17T06:04:54.941Z,-2.70
2018-02-17T06:07:23.026Z,-2.60
2018-02-17T06:09:51.916Z,-2.50
2018-02-17T06:12:20.535Z,-2.40
2018-02-17T06:14:48.417Z,-2.40
2018-02-17T06:17:17.081Z,-2.40
2018-02-17T06:19:45.015Z,-2.40
2018-02-17T06:22:13.192Z,-2.30
2018-02-17T06:24:41.232Z,-2.40
2018-02-17T06:27:09.574Z,-2.40
2018-02-17T06:29:37.530Z,-2.40
2018-02-17T06:32:05.112Z,-2.30
2018-02-17T06:34:33.893Z,-2.30
2018-02-17T06:37:01.916Z,-2.30
2018-02-17T06:39:31.122Z,-2.30
2018-02-17T06:41:59.173Z,-2.40
2018-02-17T06:44:27.930Z,-2.40
2018-02-17T06:46:56.158Z,-2.40
2018-02-17T06:49:24.408Z,-2.30
2018-02-17T06:51:52.854Z,-2.20
2018-02-17T06:54:21.232Z,-2.20
2018-02-17T06:56:49.181Z,-2.20
2018-02-17T06:59:17.360Z,-2.10
2018-02-17T07:01:45.220Z,-2.10
2018-02-17T07:04:13.039Z,-2.30
2018-02-17T07:06:44.406Z,-2.20
2018-02-17T07:09:12.972Z,-2.10
2018-02-17T07:11:40.939Z,-2.20
2018-02-17T07:14:10.386Z,-2.20
2018-02-17T07:16:44.449Z,-2.10
2018-02-17T07:19:12.332Z,-2.00
2018-02-17T07:21:42.171Z,-1.90
2018-02-17T07:24:10.204Z,-1.90
2018-02-17T07:26:39.124Z,-1.90
2018-02-17T07:29:08.111Z,-1.80
2018-02-17T07:31:36.084Z,-1.80
2018-02-17T07:34:05.283Z,-1.80
2018-02-17T07:36:33.154Z,-1.80
2018-02-17T07:39:01.396Z,-1.80
2018-02-17T07:41:29.403Z,-1.80
2018-02-17T07:43:58.118Z,-1.60
2018-02-17T07:46:29.605Z,-1.70
2018-02-17T07:48:57.690Z,-1.60
2018-02-17T07:51:26.992Z,-1.50
2018-02-17T07:53:57.235Z,-1.30
2018-02-17T07:56:26.020Z,-1.20
2018-02-17T07:58:54.899Z,-1.30
2018-02-17T08:01:24.131Z,-1.20
2018-02-17T08:03:52.089Z,-1.30
2018-02-17T08:06:20.323Z,-1.20
2018-02-17T08:08:49.758Z,-1.20
2018-02-17T08:11:18.371Z,-1.30
2018-02-17T08:13:46.276Z,-1.20
2018-02-17T08:16:14.862Z,-1.50
2018-02-17T08:18:45.472Z,-1.70
2018-02-17T08:21:13.497Z,-1.50
2018-02-17T08:23:41.438Z,-1.40
2018-02-17T08:26:14.160Z,-1.40
2018-02-17T08:28:42.836Z,-1.00
2018-02-17T08:31:10.787Z,-1.00
2018-02-17T08:33:39.676Z,-1.20
2018-02-17T08:36:08.764Z,-1.50
2018-02-17T08:38:37.653Z,-1.50
2018-02-17T08:41:06.436Z,-1.30
2018-02-17T08:43:35.501Z,-1.20
2018-02-17T08:46:03.426Z,-1.20
2018-02-17T08:48:31.507Z,-1.00
2018-02-17T08:51:02.207Z,-0.70
2018-02-17T08:53:30.366Z,-0.70
2018-02-17T08:56:01.904Z,-0.70
2018-02-17T08:58:30.091Z,-0.60
2018-02-17T09:01:00.151Z,-0.50
2018-02-17T09:03:29.877Z,-0.50
2018-02-17T09:05:58.519Z,-0.30
2018-02-17T09:08:26.546Z,-0.20
2018-02-17T09:11:05.003Z,-0.20
2018-02-17T09:13:33.894Z,-0.10
2018-02-17T09:19:11.608Z,-0.10
2018-02-17T09:21:42.168Z,-0.10
2018-02-17T09:24:30.686Z,-0.10
2018-02-17T09:27:02.762Z,-0.10
2018-02-17T09:29:31.007Z,-0.10
2018-02-17T09:32:00.762Z,0.10
2018-02-17T09:34:28.931Z,0.00
2018-02-17T09:36:56.834Z,0.10
2018-02-17T09:39:29.127Z,-0.10
2018-02-17T09:41:59.119Z,0.10
2018-02-17T09:44:28.242Z,0.30
2018-02-17T09:46:58.437Z,0.40
2018-02-17T09:49:28.458Z,0.60
2018-02-17T09:51:56.544Z,0.50
2018-02-17T09:55:12.646Z,0.40
2018-02-17T09:57:41.046Z,0.60
2018-02-17T10:00:13.604Z,1.10
2018-02-17T10:02:42.273Z,1.10
2018-02-17T10:05:25.970Z,1.20
2018-02-17T10:07:55.533Z,1.30
2018-02-17T10:10:26.270Z,1.20
2018-02-17T10:12:57.175Z,1.40
2018-02-17T10:15:26.197Z,1.40
2018-02-17T10:17:54.508Z,1.40
2018-02-17T10:20:23.018Z,1.60
2018-02-17T10:22:51.836Z,1.70
2018-02-17T10:25:30.863Z,1.70
2018-02-17T10:28:00.541Z,1.80
2018-02-17T10:30:28.762Z,1.70
2018-02-17T10:32:56.824Z,1.70
2018-02-17T10:35:24.949Z,1.60
2018-02-17T10:37:52.926Z,1.70
2018-02-17T10:40:21.025Z,1.30
2018-02-17T10:42:49.291Z,1.40
2018-02-17T10:45:20.131Z,1.50
2018-02-17T10:48:03.159Z,1.50
2018-02-17T10:50:32.303Z,1.70
2018-02-17T10:53:01.676Z,1.80
2018-02-17T10:55:34.464Z,1.70
2018-02-17T10:58:16.512Z,1.80
2018-02-17T11:00:46.345Z,1.80
2018-02-17T11:03:15.400Z,2.00
2018-02-17T11:05:44.056Z,2.00
2018-02-17T11:08:14.531Z,2.20
2018-02-17T11:10:43.111Z,1.90
2018-02-17T11:13:12.127Z,1.80
2018-02-17T11:15:42.102Z,2.10
2018-02-17T11:18:10.956Z,2.10
2018-02-17T11:20:39.177Z,2.40
2018-02-17T11:23:08.705Z,2.50
2018-02-17T11:25:37.060Z,2.60
2018-02-17T11:28:05.329Z,2.70
2018-02-17T11:30:34.926Z,2.80
2018-02-17T11:33:15.731Z,2.90
2018-02-17T11:38:59.445Z,3.00
2018-02-17T11:41:28.620Z,3.00
2018-02-17T11:43:57.171Z,3.10
2018-02-17T11:46:25.640Z,3.20
2018-02-17T11:48:53.687Z,3.00
2018-02-17T11:51:21.727Z,3.10
2018-02-17T11:53:56.170Z,3.10
2018-02-17T11:56:24.498Z,3.00
2018-02-17T11:59:18.471Z,3.20
2018-02-17T12:01:47.068Z,3.30
2018-02-17T12:04:25.089Z,3.20
2018-02-17T12:06:53.846Z,3.20
2018-02-17T12:09:28.063Z,3.00
2018-02-17T12:11:56.088Z,3.00
2018-02-17T12:14:29.670Z,2.90
2018-02-17T12:16:58.349Z,3.20
2018-02-17T12:19:28.204Z,3.30
2018-02-17T12:21:56.285Z,3.20
2018-02-17T12:26:58.491Z,3.20
2018-02-17T12:29:26.559Z,3.20
2018-02-17T12:31:56.670Z,3.30
2018-02-17T12:34:24.746Z,3.50
2018-02-17T12:36:56.221Z,3.30
2018-02-17T12:39:24.848Z,3.50
2018-02-17T12:41:52.909Z,3.50
2018-02-17T12:44:22.115Z,3.70
2018-02-17T12:46:50.265Z,3.70
2018-02-17T12:49:18.232Z,3.80
2018-02-17T12:51:48.480Z,3.80
2018-02-17T12:54:16.671Z,4.00
2018-02-17T12:56:52.641Z,3.90
2018-02-17T12:59:24.148Z,3.80
2018-02-17T13:01:52.274Z,3.80
2018-02-17T13:04:20.518Z,3.60
2018-02-17T13:06:49.420Z,3.70
2018-02-17T13:09:17.665Z,3.70
2018-02-17T13:12:00.845Z,3.70
2018-02-17T13:14:28.830Z,3.70
2018-02-17T13:16:58.807Z,3.70
2018-02-17T13:19:26.883Z,3.70
2018-02-17T13:22:13.144Z,3.60
2018-02-17T13:24:43.047Z,3.60
2018-02-17T13:27:14.017Z,3.70
2018-02-17T13:29:42.224Z,3.70
2018-02-17T13:32:11.371Z,3.60
2018-02-17T13:34:41.699Z,3.60
2018-02-17T13:37:09.725Z,3.50
2018-02-17T13:39:44.613Z,3.60
2018-02-17T13:42:32.914Z,3.60
2018-02-17T13:45:17.706Z,3.50
2018-02-17T13:47:46.303Z,3.60
2018-02-17T13:50:28.865Z,3.50
2018-02-17T13:52:57.649Z,3.50
2018-02-17T13:55:26.349Z,3.50
2018-02-17T13:57:58.014Z,3.50
2018-02-17T14:01:07.328Z,3.50
2018-02-17T14:03:40.098Z,4.00
2018-02-17T14:06:08.168Z,4.20
2018-02-17T14:08:44.801Z,4.00
2018-02-17T14:11:20.134Z,4.00
2018-02-17T15:05:57.311Z,2.80
2018-02-17T15:08:26.919Z,3.30
2018-02-17T15:10:58.507Z,3.30
2018-02-17T15:13:28.252Z,2.90
2018-02-17T15:15:56.239Z,2.80
2018-02-17T15:18:24.584Z,2.70
2018-02-17T15:20:54.436Z,2.90
2018-02-17T15:23:22.868Z,2.90
2018-02-17T15:31:44.051Z,2.60
2018-02-17T15:34:12.577Z,2.60
2018-02-17T16:04:21.692Z,2.90
2018-02-17T16:06:59.772Z,2.80
2018-02-17T16:09:45.801Z,2.90
2018-02-17T16:12:14.628Z,2.80
2018-02-17T16:25:09.528Z,2.10
2018-02-17T16:28:04.541Z,2.10
2018-02-17T16:30:44.824Z,2.00
2018-02-17T16:33:18.000Z,2.00
2018-02-17T16:36:02.110Z,2.00
2018-02-17T16:38:30.795Z,2.00
2018-02-17T16:41:01.823Z,2.00
2018-02-17T16:43:35.747Z,2.00
2018-02-17T16:46:06.780Z,1.90
2018-02-17T16:49:02.378Z,1.90
2018-02-17T16:51:31.215Z,1.80
2018-02-17T16:53:59.251Z,1.80
2018-02-17T16:56:28.683Z,1.80
2018-02-17T16:58:57.794Z,1.70
2018-02-17T17:01:26.834Z,1.70
2018-02-17T17:07:11.620Z,1.70
2018-02-17T17:10:22.499Z,1.60
2018-02-17T17:12:52.019Z,1.60
2018-02-17T17:16:02.723Z,1.50
2018-02-17T17:18:34.409Z,1.50
2018-02-17T17:21:03.955Z,1.50
2018-02-17T17:23:39.018Z,1.50
2018-02-17T17:26:11.854Z,1.40
2018-02-17T17:28:44.284Z,1.40
2018-02-17T17:31:13.451Z,1.50
2018-02-17T17:33:44.292Z,1.50
2018-02-17T17:36:34.274Z,1.50
2018-02-17T17:39:07.457Z,1.50
2018-02-17T17:41:43.086Z,1.60
2018-02-17T17:44:14.694Z,1.50
2018-02-17T17:49:51.592Z,1.50
2018-02-17T17:52:28.392Z,1.50
2018-02-17T17:55:04.554Z,1.50
2018-02-17T17:57:34.480Z,1.40
2018-02-17T18:00:12.239Z,1.40
2018-02-17T18:06:33.622Z,1.40
2018-02-17T18:09:24.273Z,1.30
2018-02-17T18:11:58.854Z,1.30
2018-02-17T18:14:35.564Z,1.20
2018-02-17T18:17:06.956Z,1.30
2018-02-17T18:19:40.915Z,1.20
2018-02-17T18:22:10.985Z,1.20
2018-02-17T18:24:41.511Z,1.20
2018-02-17T18:27:13.461Z,1.20
2018-02-17T18:29:55.033Z,1.30
2018-02-17T18:32:45.744Z,1.20
2018-02-17T18:35:21.677Z,1.10
2018-02-17T18:37:57.730Z,1.10
2018-02-17T18:40:42.610Z,1.00
2018-02-17T18:43:16.499Z,1.00
2018-02-17T18:45:49.270Z,0.90
2018-02-17T18:48:29.406Z,0.90
2018-02-17T18:51:07.938Z,0.90
2018-02-17T18:53:51.826Z,0.90
2018-02-17T18:56:38.046Z,0.90
2018-02-17T18:59:12.111Z,0.80
2018-02-17T19:05:35.965Z,0.80
2018-02-17T19:08:17.798Z,0.70
2018-02-17T19:10:54.866Z,0.70
2018-02-17T19:16:09.065Z,0.70
2018-02-17T19:18:38.966Z,0.70
2018-02-17T19:21:07.755Z,0.70
2018-02-17T19:23:38.060Z,0.70
2018-02-17T19:26:16.979Z,0.60
2018-02-17T19:28:45.452Z,0.70
2018-02-17T19:31:31.796Z,0.70
2018-02-17T19:34:02.257Z,0.80
2018-02-17T19:36:35.178Z,0.70
2018-02-17T19:39:04.307Z,0.70
2018-02-17T19:41:53.152Z,0.70
2018-02-17T19:44:56.146Z,0.80
2018-02-17T19:47:27.254Z,0.70
2018-02-17T19:49:56.799Z,0.70
2018-02-17T19:52:28.215Z,0.70
2018-02-17T19:54:59.746Z,0.60
2018-02-17T19:57:31.815Z,0.60
2018-02-17T20:00:04.593Z,0.60
2018-02-17T20:02:36.701Z,0.60
2018-02-17T20:05:05.524Z,0.60
2018-02-17T20:07:34.251Z,0.60
2018-02-17T20:10:05.228Z,0.60
2018-02-17T20:12:37.195Z,0.70
2018-02-17T20:15:17.538Z,0.60
2018-02-17T20:17:50.282Z,0.60
2018-02-17T20:20:20.315Z,0.60
2018-02-17T20:22:49.315Z,0.50
2018-02-17T20:25:19.217Z,0.50
2018-02-17T20:27:49.515Z,0.40
2018-02-17T20:30:23.828Z,0.50
2018-02-17T20:32:59.031Z,0.50
2018-02-17T20:35:28.808Z,0.50
2018-02-17T20:38:02.643Z,0.60
2018-02-17T20:40:37.374Z,0.70
2018-02-17T20:43:12.150Z,0.60
2018-02-17T20:45:41.569Z,0.50
2018-02-17T20:48:12.730Z,0.60
2018-02-17T20:50:42.637Z,0.40
2018-02-17T20:53:13.360Z,0.40
2018-02-17T20:55:44.703Z,0.30
2018-02-17T20:58:14.331Z,0.30
2018-02-17T21:00:47.725Z,0.10
2018-02-17T21:03:23.126Z,0.10
2018-02-17T21:05:53.696Z,0.10
2018-02-17T21:08:24.244Z,0.10
2018-02-17T21:11:10.721Z,0.00
2018-02-17T21:13:39.195Z,0.10
2018-02-17T21:16:15.230Z,0.00
2018-02-17T21:18:45.081Z,0.00
2018-02-17T21:21:16.132Z,-0.10
2018-02-17T21:23:45.418Z,-0.10
2018-02-17T21:26:14.880Z,-0.10
2018-02-17T21:28:45.710Z,-0.10
2018-02-17T21:31:21.837Z,-0.10
2018-02-17T21:33:51.888Z,-0.20
2018-02-17T21:36:22.636Z,-0.20
2018-02-17T21:38:52.915Z,-0.30
2018-02-17T21:41:27.719Z,-0.40
2018-02-17T21:43:56.397Z,-0.30
2018-02-17T21:46:24.391Z,-0.30
2018-02-17T21:48:53.232Z,-0.20
2018-02-17T21:51:26.607Z,-0.20
2018-02-17T21:53:55.838Z,-0.30
2018-02-17T21:56:27.282Z,-0.30
2018-02-17T21:58:59.554Z,-0.30
2018-02-17T22:01:28.903Z,-0.40
2018-02-17T22:03:59.251Z,-0.30
2018-02-17T22:06:32.318Z,-0.40
2018-02-17T22:09:07.312Z,-0.50
2018-02-17T22:11:37.997Z,-0.60
2018-02-17T22:14:10.802Z,-0.60
2018-02-17T22:16:40.244Z,-0.60
2018-02-17T22:19:11.702Z,-0.70
2018-02-17T22:21:41.317Z,-0.80
2018-02-17T22:24:16.594Z,-0.80
2018-02-17T22:26:49.048Z,-0.80
2018-02-17T22:29:22.485Z,-0.80
2018-02-17T22:31:53.979Z,-0.70
2018-02-17T22:34:26.165Z,-0.60
2018-02-17T22:36:56.339Z,-0.60
2018-02-17T22:39:29.624Z,-0.80
2018-02-17T22:42:02.933Z,-0.80
2018-02-17T22:44:38.755Z,-0.80
2018-02-17T22:47:09.728Z,-0.80
2018-02-17T22:49:42.318Z,-0.90
2018-02-17T22:52:13.697Z,-1.00
2018-02-17T22:54:45.991Z,-1.10
2018-02-17T22:57:18.042Z,-1.10
2018-02-17T22:59:50.413Z,-1.10
2018-02-17T23:02:18.360Z,-1.10
2018-02-17T23:04:46.351Z,-1.10
2018-02-17T23:07:14.281Z,-1.10
2018-02-17T23:09:42.146Z,-1.10
2018-02-17T23:12:10.121Z,-1.20
2018-02-17T23:14:38.017Z,-1.20
2018-02-17T23:17:05.922Z,-1.30
2018-02-17T23:19:34.763Z,-1.20
2018-02-17T23:22:02.741Z,-1.30
2018-02-17T23:24:30.616Z,-1.30
2018-02-17T23:26:59.321Z,-1.30
2018-02-17T23:29:27.259Z,-1.40
2018-02-17T23:31:56.008Z,-1.30
2018-02-17T23:34:23.901Z,-1.40
2018-02-17T23:36:51.814Z,-1.40
2018-02-17T23:39:20.443Z,-1.40
2018-02-17T23:41:48.441Z,-1.40
2018-02-17T23:44:16.357Z,-1.30
2018-02-17T23:46:45.116Z,-1.30
2018-02-17T23:49:13.727Z,-1.40
2018-02-17T23:51:41.622Z,-1.40
2018-02-17T23:54:09.571Z,-1.30
2018-02-17T23:56:37.395Z,-1.30
2018-02-17T23:59:05.338Z,-1.50
